sensor_id;sensor_type;location;lat;lon;timestamp;P1;durP1;ratioP1;P2;durP2;ratioP2
7340;SDS011;6870;50.944;6.932;2024-03-23T00:53:31;3.70;;;2.93;;
7340;SDS011;6870;50.944;6.932;2024-03-23T00:55:59;5.13;;;2.97;;
7340;SDS011;6870;50.944;6.932;2024-03-23T00:58:25;3.70;;;2.90;;
7340;SDS011;6870;50.944;6.932;2024-03-23T01:00:52;4.40;;;3.20;;
7340;SDS011;6870;50.944;6.932;2024-03-23T01:03:18;5.40;;;3.17;;
7340;SDS011;6870;50.944;6.932;2024-03-23T01:05:46;3.30;;;2.73;;
7340;SDS011;6870;50.944;6.932;2024-03-23T01:08:12;3.13;;;2.80;;
7340;SDS011;6870;50.944;6.932;2024-03-23T01:10:40;4.77;;;3.47;;
7340;SDS011;6870;50.944;6.932;2024-03-23T01:13:06;3.90;;;2.77;;
7340;SDS011;6870;50.944;6.932;2024-03-23T01:15:34;5.50;;;4.40;;
7340;SDS011;6870;50.944;6.932;2024-03-23T01:18:00;5.03;;;3.70;;
7340;SDS011;6870;50.944;6.932;2024-03-23T01:20:27;10.47;;;3.57;;
7340;SDS011;6870;50.944;6.932;2024-03-23T01:22:53;4.00;;;2.87;;
7340;SDS011;6870;50.944;6.932;2024-03-23T01:25:20;3.33;;;2.83;;
7340;SDS011;6870;50.944;6.932;2024-03-23T01:27:48;3.77;;;2.97;;
7340;SDS011;6870;50.944;6.932;2024-03-23T01:30:15;5.07;;;2.90;;
7340;SDS011;6870;50.944;6.932;2024-03-23T01:32:41;6.03;;;3.07;;
7340;SDS011;6870;50.944;6.932;2024-03-23T01:35:08;5.03;;;2.77;;
7340;SDS011;6870;50.944;6.932;2024-03-23T01:37:35;2.97;;;2.23;;
7340;SDS011;6870;50.944;6.932;2024-03-23T01:40:02;3.20;;;2.90;;
7340;SDS011;6870;50.944;6.932;2024-03-23T01:42:29;4.27;;;2.70;;
7340;SDS011;6870;50.944;6.932;2024-03-23T01:44:58;5.43;;;3.10;;
7340;SDS011;6870;50.944;6.932;2024-03-23T01:47:24;2.87;;;2.57;;
7340;SDS011;6870;50.944;6.932;2024-03-23T01:49:51;2.73;;;2.33;;
7340;SDS011;6870;50.944;6.932;2024-03-23T01:52:17;2.90;;;2.30;;
7340;SDS011;6870;50.944;6.932;2024-03-23T01:54:45;3.20;;;2.40;;
7340;SDS011;6870;50.944;6.932;2024-03-23T01:57:11;4.17;;;2.60;;
7340;SDS011;6870;50.944;6.932;2024-03-23T01:59:39;4.23;;;2.67;;
7340;SDS011;6870;50.944;6.932;2024-03-23T02:02:06;3.70;;;2.30;;
7340;SDS011;6870;50.944;6.932;2024-03-23T02:04:33;9.33;;;2.87;;
7340;SDS011;6870;50.944;6.932;2024-03-23T02:07:00;3.00;;;2.40;;
7340;SDS011;6870;50.944;6.932;2024-03-23T02:09:28;3.60;;;3.17;;
7340;SDS011;6870;50.944;6.932;2024-03-23T02:11:54;3.70;;;2.47;;
7340;SDS011;6870;50.944;6.932;2024-03-23T02:14:21;3.17;;;2.43;;
7340;SDS011;6870;50.944;6.932;2024-03-23T02:16:48;2.80;;;2.10;;
7340;SDS011;6870;50.944;6.932;2024-03-23T02:19:16;6.53;;;3.10;;
7340;SDS011;6870;50.944;6.932;2024-03-23T02:21:42;3.70;;;2.30;;
7340;SDS011;6870;50.944;6.932;2024-03-23T02:24:11;3.10;;;2.27;;
7340;SDS011;6870;50.944;6.932;2024-03-23T02:26:37;3.40;;;2.20;;
7340;SDS011;6870;50.944;6.932;2024-03-23T02:29:04;3.80;;;2.03;;
7340;SDS011;6870;50.944;6.932;2024-03-23T02:31:30;2.50;;;2.30;;
7340;SDS011;6870;50.944;6.932;2024-03-23T02:33:58;3.37;;;2.33;;
7340;SDS011;6870;50.944;6.932;2024-03-23T02:36:24;5.10;;;3.03;;
7340;SDS011;6870;50.944;6.932;2024-03-23T02:38:52;2.80;;;2.40;;
7340;SDS011;6870;50.944;6.932;2024-03-23T02:41:19;3.33;;;2.53;;
7340;SDS011;6870;50.944;6.932;2024-03-23T02:43:49;3.30;;;2.30;;
7340;SDS011;6870;50.944;6.932;2024-03-23T02:46:15;3.73;;;2.40;;
7340;SDS011;6870;50.944;6.932;2024-03-23T02:48:42;3.20;;;1.83;;
7340;SDS011;6870;50.944;6.932;2024-03-23T02:51:09;4.33;;;1.90;;
7340;SDS011;6870;50.944;6.932;2024-03-23T02:53:36;6.77;;;2.00;;
7340;SDS011;6870;50.944;6.932;2024-03-23T02:56:02;3.13;;;1.77;;
7340;SDS011;6870;50.944;6.932;2024-03-23T02:58:31;2.93;;;1.90;;
7340;SDS011;6870;50.944;6.932;2024-03-23T03:00:57;3.47;;;2.20;;
7340;SDS011;6870;50.944;6.932;2024-03-23T03:03:24;3.93;;;2.10;;
7340;SDS011;6870;50.944;6.932;2024-03-23T03:05:54;3.17;;;2.10;;
7340;SDS011;6870;50.944;6.932;2024-03-23T03:08:22;4.13;;;2.20;;
7340;SDS011;6870;50.944;6.932;2024-03-23T03:10:48;5.87;;;2.30;;
7340;SDS011;6870;50.944;6.932;2024-03-23T03:13:15;4.77;;;2.67;;
7340;SDS011;6870;50.944;6.932;2024-03-23T03:15:43;4.07;;;1.50;;
7340;SDS011;6870;50.944;6.932;2024-03-23T03:18:10;5.20;;;2.00;;
7340;SDS011;6870;50.944;6.932;2024-03-23T03:20:38;3.27;;;1.93;;
7340;SDS011;6870;50.944;6.932;2024-03-23T03:23:04;4.93;;;1.83;;
7340;SDS011;6870;50.944;6.932;2024-03-23T03:25:32;3.13;;;1.37;;
7340;SDS011;6870;50.944;6.932;2024-03-23T03:27:58;3.20;;;1.70;;
7340;SDS011;6870;50.944;6.932;2024-03-23T03:30:25;4.37;;;2.50;;
7340;SDS011;6870;50.944;6.932;2024-03-23T03:32:53;5.03;;;1.80;;
7340;SDS011;6870;50.944;6.932;2024-03-23T03:35:20;3.03;;;1.93;;
7340;SDS011;6870;50.944;6.932;2024-03-23T03:37:46;3.70;;;2.20;;
7340;SDS011;6870;50.944;6.932;2024-03-23T03:40:14;2.03;;;1.57;;
7340;SDS011;6870;50.944;6.932;2024-03-23T03:42:40;2.53;;;1.83;;
7340;SDS011;6870;50.944;6.932;2024-03-23T03:45:07;3.27;;;1.60;;
7340;SDS011;6870;50.944;6.932;2024-03-23T03:47:33;3.90;;;1.70;;
7340;SDS011;6870;50.944;6.932;2024-03-23T03:50:02;4.83;;;2.40;;
7340;SDS011;6870;50.944;6.932;2024-03-23T03:52:28;2.33;;;1.67;;
7340;SDS011;6870;50.944;6.932;2024-03-23T03:55:01;4.33;;;1.87;;
7340;SDS011;6870;50.944;6.932;2024-03-23T03:57:28;3.10;;;2.03;;
7340;SDS011;6870;50.944;6.932;2024-03-23T03:59:56;2.90;;;1.90;;
7340;SDS011;6870;50.944;6.932;2024-03-23T04:02:22;3.77;;;2.10;;
7340;SDS011;6870;50.944;6.932;2024-03-23T04:04:49;2.83;;;1.87;;
7340;SDS011;6870;50.944;6.932;2024-03-23T04:07:16;3.83;;;2.13;;
7340;SDS011;6870;50.944;6.932;2024-03-23T04:09:45;2.83;;;1.67;;
7340;SDS011;6870;50.944;6.932;2024-03-23T04:12:12;3.53;;;1.90;;
7340;SDS011;6870;50.944;6.932;2024-03-23T04:14:39;3.57;;;1.70;;
7340;SDS011;6870;50.944;6.932;2024-03-23T04:17:05;4.10;;;1.63;;
7340;SDS011;6870;50.944;6.932;2024-03-23T04:19:32;5.27;;;2.23;;
7340;SDS011;6870;50.944;6.932;2024-03-23T04:21:58;1.73;;;1.33;;
7340;SDS011;6870;50.944;6.932;2024-03-23T04:24:27;2.77;;;2.00;;
7340;SDS011;6870;50.944;6.932;2024-03-23T04:26:54;2.17;;;1.97;;
7340;SDS011;6870;50.944;6.932;2024-03-23T04:29:21;3.57;;;2.10;;
7340;SDS011;6870;50.944;6.932;2024-03-23T04:31:47;2.30;;;1.43;;
7340;SDS011;6870;50.944;6.932;2024-03-23T04:34:17;5.53;;;1.70;;
7340;SDS011;6870;50.944;6.932;2024-03-23T04:36:44;2.60;;;1.20;;
7340;SDS011;6870;50.944;6.932;2024-03-23T04:39:11;2.40;;;2.00;;
7340;SDS011;6870;50.944;6.932;2024-03-23T04:41:40;3.40;;;1.80;;
7340;SDS011;6870;50.944;6.932;2024-03-23T04:44:07;2.23;;;1.77;;
7340;SDS011;6870;50.944;6.932;2024-03-23T04:46:34;7.00;;;1.97;;
7340;SDS011;6870;50.944;6.932;2024-03-23T04:49:01;2.43;;;1.70;;
7340;SDS011;6870;50.944;6.932;2024-03-23T04:51:34;2.60;;;1.70;;
7340;SDS011;6870;50.944;6.932;2024-03-23T04:54:03;2.60;;;1.40;;
7340;SDS011;6870;50.944;6.932;2024-03-23T04:56:31;2.77;;;1.67;;
7340;SDS011;6870;50.944;6.932;2024-03-23T04:58:59;2.90;;;1.77;;
7340;SDS011;6870;50.944;6.932;2024-03-23T05:01:27;1.57;;;1.20;;
7340;SDS011;6870;50.944;6.932;2024-03-23T05:03:54;3.27;;;1.53;;
7340;SDS011;6870;50.944;6.932;2024-03-23T05:06:20;2.80;;;1.83;;
7340;SDS011;6870;50.944;6.932;2024-03-23T05:08:47;2.50;;;1.57;;
7340;SDS011;6870;50.944;6.932;2024-03-23T05:11:14;3.77;;;1.80;;
7340;SDS011;6870;50.944;6.932;2024-03-23T05:13:42;2.70;;;1.70;;
7340;SDS011;6870;50.944;6.932;2024-03-23T05:16:10;2.67;;;1.60;;
7340;SDS011;6870;50.944;6.932;2024-03-23T05:18:37;3.50;;;1.90;;
7340;SDS011;6870;50.944;6.932;2024-03-23T05:21:03;3.10;;;1.83;;
7340;SDS011;6870;50.944;6.932;2024-03-23T05:23:30;1.90;;;1.57;;
7340;SDS011;6870;50.944;6.932;2024-03-23T05:25:57;2.93;;;1.70;;
7340;SDS011;6870;50.944;6.932;2024-03-23T05:28:24;3.30;;;1.50;;
7340;SDS011;6870;50.944;6.932;2024-03-23T05:30:50;3.73;;;1.30;;
7340;SDS011;6870;50.944;6.932;2024-03-23T05:33:20;2.10;;;1.40;;
7340;SDS011;6870;50.944;6.932;2024-03-23T05:35:46;6.67;;;1.90;;
7340;SDS011;6870;50.944;6.932;2024-03-23T05:38:14;2.53;;;1.40;;
7340;SDS011;6870;50.944;6.932;2024-03-23T05:40:40;1.63;;;1.43;;
7340;SDS011;6870;50.944;6.932;2024-03-23T05:43:07;3.80;;;1.57;;
7340;SDS011;6870;50.944;6.932;2024-03-23T05:45:34;2.30;;;1.60;;
7340;SDS011;6870;50.944;6.932;2024-03-23T05:48:01;2.13;;;1.60;;
7340;SDS011;6870;50.944;6.932;2024-03-23T05:50:29;1.90;;;1.30;;
7340;SDS011;6870;50.944;6.932;2024-03-23T05:52:56;2.47;;;1.60;;
7340;SDS011;6870;50.944;6.932;2024-03-23T05:55:22;3.80;;;1.93;;
7340;SDS011;6870;50.944;6.932;2024-03-23T05:57:49;2.10;;;1.30;;
7340;SDS011;6870;50.944;6.932;2024-03-23T06:00:16;2.80;;;1.77;;
7340;SDS011;6870;50.944;6.932;2024-03-23T06:02:43;2.47;;;1.53;;
7340;SDS011;6870;50.944;6.932;2024-03-23T06:05:10;2.70;;;1.53;;
7340;SDS011;6870;50.944;6.932;2024-03-23T06:07:39;1.80;;;1.30;;
7340;SDS011;6870;50.944;6.932;2024-03-23T06:10:05;2.60;;;1.30;;
7340;SDS011;6870;50.944;6.932;2024-03-23T06:12:33;2.60;;;1.30;;
7340;SDS011;6870;50.944;6.932;2024-03-23T06:14:59;2.60;;;1.47;;
7340;SDS011;6870;50.944;6.932;2024-03-23T06:17:27;2.63;;;1.37;;
7340;SDS011;6870;50.944;6.932;2024-03-23T06:19:53;2.00;;;1.37;;
7340;SDS011;6870;50.944;6.932;2024-03-23T06:22:20;3.07;;;1.90;;
7340;SDS011;6870;50.944;6.932;2024-03-23T06:24:48;1.73;;;1.10;;
7340;SDS011;6870;50.944;6.932;2024-03-23T06:27:15;5.40;;;2.00;;
7340;SDS011;6870;50.944;6.932;2024-03-23T06:29:41;3.00;;;1.77;;
7340;SDS011;6870;50.944;6.932;2024-03-23T06:32:08;7.13;;;1.37;;
7340;SDS011;6870;50.944;6.932;2024-03-23T06:34:34;2.10;;;1.27;;
7340;SDS011;6870;50.944;6.932;2024-03-23T06:37:02;3.40;;;1.50;;
7340;SDS011;6870;50.944;6.932;2024-03-23T06:39:29;3.00;;;1.50;;
7340;SDS011;6870;50.944;6.932;2024-03-23T06:41:57;2.60;;;1.10;;
7340;SDS011;6870;50.944;6.932;2024-03-23T06:44:24;3.87;;;1.60;;
7340;SDS011;6870;50.944;6.932;2024-03-23T06:46:51;1.83;;;1.33;;
7340;SDS011;6870;50.944;6.932;2024-03-23T06:49:17;3.33;;;1.40;;
7340;SDS011;6870;50.944;6.932;2024-03-23T06:51:44;3.70;;;1.43;;
7340;SDS011;6870;50.944;6.932;2024-03-23T06:54:11;2.43;;;1.40;;
7340;SDS011;6870;50.944;6.932;2024-03-23T06:56:38;3.53;;;1.30;;
7340;SDS011;6870;50.944;6.932;2024-03-23T06:59:06;2.97;;;1.13;;
7340;SDS011;6870;50.944;6.932;2024-03-23T07:01:33;4.50;;;2.07;;
7340;SDS011;6870;50.944;6.932;2024-03-23T07:04:00;2.17;;;1.40;;
7340;SDS011;6870;50.944;6.932;2024-03-23T07:06:28;2.57;;;1.40;;
7340;SDS011;6870;50.944;6.932;2024-03-23T07:08:54;1.70;;;1.07;;
7340;SDS011;6870;50.944;6.932;2024-03-23T07:11:21;3.00;;;1.87;;
7340;SDS011;6870;50.944;6.932;2024-03-23T07:13:49;1.63;;;1.10;;
7340;SDS011;6870;50.944;6.932;2024-03-23T07:16:18;3.97;;;1.30;;
7340;SDS011;6870;50.944;6.932;2024-03-23T07:18:44;1.97;;;1.20;;
7340;SDS011;6870;50.944;6.932;2024-03-23T07:21:11;4.17;;;1.70;;
7340;SDS011;6870;50.944;6.932;2024-03-23T07:23:39;3.03;;;1.20;;
7340;SDS011;6870;50.944;6.932;2024-03-23T07:26:09;3.20;;;1.23;;
7340;SDS011;6870;50.944;6.932;2024-03-23T07:28:36;2.03;;;1.43;;
7340;SDS011;6870;50.944;6.932;2024-03-23T07:31:04;3.27;;;1.27;;
7340;SDS011;6870;50.944;6.932;2024-03-23T07:33:33;1.80;;;1.40;;
7340;SDS011;6870;50.944;6.932;2024-03-23T07:36:00;2.40;;;1.37;;
7340;SDS011;6870;50.944;6.932;2024-03-23T07:38:27;2.40;;;1.23;;
7340;SDS011;6870;50.944;6.932;2024-03-23T07:41:04;2.57;;;1.13;;
7340;SDS011;6870;50.944;6.932;2024-03-23T07:43:32;1.70;;;1.37;;
7340;SDS011;6870;50.944;6.932;2024-03-23T07:45:59;2.47;;;1.20;;
7340;SDS011;6870;50.944;6.932;2024-03-23T07:48:26;3.80;;;1.27;;
7340;SDS011;6870;50.944;6.932;2024-03-23T07:51:02;2.17;;;1.33;;
7340;SDS011;6870;50.944;6.932;2024-03-23T07:53:31;2.00;;;1.30;;
7340;SDS011;6870;50.944;6.932;2024-03-23T07:55:59;2.30;;;1.40;;
7340;SDS011;6870;50.944;6.932;2024-03-23T07:58:27;4.03;;;1.27;;
7340;SDS011;6870;50.944;6.932;2024-03-23T08:00:54;2.80;;;0.97;;
7340;SDS011;6870;50.944;6.932;2024-03-23T08:03:22;3.23;;;1.40;;
7340;SDS011;6870;50.944;6.932;2024-03-23T08:05:48;6.10;;;3.00;;
7340;SDS011;6870;50.944;6.932;2024-03-23T08:08:17;2.27;;;1.33;;
7340;SDS011;6870;50.944;6.932;2024-03-23T08:10:49;1.87;;;1.53;;
7340;SDS011;6870;50.944;6.932;2024-03-23T08:13:17;2.33;;;1.30;;
7340;SDS011;6870;50.944;6.932;2024-03-23T08:15:44;1.57;;;1.03;;
7340;SDS011;6870;50.944;6.932;2024-03-23T08:18:12;2.40;;;1.37;;
7340;SDS011;6870;50.944;6.932;2024-03-23T08:20:39;2.20;;;1.43;;
7340;SDS011;6870;50.944;6.932;2024-03-23T08:23:06;3.53;;;1.33;;
7340;SDS011;6870;50.944;6.932;2024-03-23T08:25:34;1.57;;;0.97;;
7340;SDS011;6870;50.944;6.932;2024-03-23T08:28:01;1.90;;;0.97;;
7340;SDS011;6870;50.944;6.932;2024-03-23T08:30:28;2.33;;;1.60;;
7340;SDS011;6870;50.944;6.932;2024-03-23T08:32:55;2.27;;;1.03;;
7340;SDS011;6870;50.944;6.932;2024-03-23T08:35:22;2.23;;;1.37;;
7340;SDS011;6870;50.944;6.932;2024-03-23T08:37:49;3.10;;;1.50;;
7340;SDS011;6870;50.944;6.932;2024-03-23T08:40:15;3.50;;;1.87;;
7340;SDS011;6870;50.944;6.932;2024-03-23T08:42:44;2.33;;;1.10;;
7340;SDS011;6870;50.944;6.932;2024-03-23T08:45:10;2.17;;;1.50;;
7340;SDS011;6870;50.944;6.932;2024-03-23T08:47:37;2.00;;;1.27;;
7340;SDS011;6870;50.944;6.932;2024-03-23T08:50:03;3.43;;;1.47;;
7340;SDS011;6870;50.944;6.932;2024-03-23T08:52:32;2.03;;;1.10;;
7340;SDS011;6870;50.944;6.932;2024-03-23T08:54:58;2.60;;;1.00;;
7340;SDS011;6870;50.944;6.932;2024-03-23T08:57:25;3.10;;;1.30;;
7340;SDS011;6870;50.944;6.932;2024-03-23T08:59:53;2.60;;;1.70;;
7340;SDS011;6870;50.944;6.932;2024-03-23T09:02:20;4.87;;;1.20;;
7340;SDS011;6870;50.944;6.932;2024-03-23T09:04:46;2.83;;;1.57;;
7340;SDS011;6870;50.944;6.932;2024-03-23T09:07:13;3.93;;;1.63;;
7340;SDS011;6870;50.944;6.932;2024-03-23T09:09:39;3.37;;;1.57;;
7340;SDS011;6870;50.944;6.932;2024-03-23T09:12:07;2.20;;;1.47;;
7340;SDS011;6870;50.944;6.932;2024-03-23T09:14:33;2.43;;;1.33;;
7340;SDS011;6870;50.944;6.932;2024-03-23T09:17:02;2.60;;;0.83;;
7340;SDS011;6870;50.944;6.932;2024-03-23T09:19:28;5.30;;;1.63;;
7340;SDS011;6870;50.944;6.932;2024-03-23T09:21:56;2.57;;;1.47;;
7340;SDS011;6870;50.944;6.932;2024-03-23T09:24:22;3.30;;;1.80;;
7340;SDS011;6870;50.944;6.932;2024-03-23T09:26:51;2.87;;;1.50;;
7340;SDS011;6870;50.944;6.932;2024-03-23T09:29:17;6.50;;;1.47;;
7340;SDS011;6870;50.944;6.932;2024-03-23T09:31:44;3.20;;;1.30;;
7340;SDS011;6870;50.944;6.932;2024-03-23T09:34:12;3.80;;;1.30;;
7340;SDS011;6870;50.944;6.932;2024-03-23T09:36:39;3.40;;;1.50;;
7340;SDS011;6870;50.944;6.932;2024-03-23T09:39:06;2.20;;;0.87;;
7340;SDS011;6870;50.944;6.932;2024-03-23T09:41:34;8.60;;;2.87;;
7340;SDS011;6870;50.944;6.932;2024-03-23T09:44:01;7.83;;;3.10;;
7340;SDS011;6870;50.944;6.932;2024-03-23T09:46:28;4.30;;;2.30;;
7340;SDS011;6870;50.944;6.932;2024-03-23T09:48:59;5.67;;;2.70;;
7340;SDS011;6870;50.944;6.932;2024-03-23T09:51:30;5.10;;;2.40;;
7340;SDS011;6870;50.944;6.932;2024-03-23T09:53:57;4.10;;;2.07;;
7340;SDS011;6870;50.944;6.932;2024-03-23T09:56:24;5.03;;;2.30;;
7340;SDS011;6870;50.944;6.932;2024-03-23T09:58:50;6.00;;;2.97;;
7340;SDS011;6870;50.944;6.932;2024-03-23T10:01:17;7.03;;;2.20;;
7340;SDS011;6870;50.944;6.932;2024-03-23T10:03:44;5.37;;;2.50;;
7340;SDS011;6870;50.944;6.932;2024-03-23T10:06:12;6.60;;;2.37;;
7340;SDS011;6870;50.944;6.932;2024-03-23T10:08:39;4.17;;;2.40;;
7340;SDS011;6870;50.944;6.932;2024-03-23T10:11:12;4.60;;;1.87;;
7340;SDS011;6870;50.944;6.932;2024-03-23T10:13:41;8.03;;;2.27;;
7340;SDS011;6870;50.944;6.932;2024-03-23T10:16:09;3.17;;;1.67;;
7340;SDS011;6870;50.944;6.932;2024-03-23T10:18:39;3.10;;;1.60;;
7340;SDS011;6870;50.944;6.932;2024-03-23T10:21:06;6.40;;;1.90;;
7340;SDS011;6870;50.944;6.932;2024-03-23T10:23:34;3.83;;;2.30;;
7340;SDS011;6870;50.944;6.932;2024-03-23T10:26:13;3.77;;;2.10;;
7340;SDS011;6870;50.944;6.932;2024-03-23T10:28:55;3.63;;;1.63;;
7340;SDS011;6870;50.944;6.932;2024-03-23T10:31:26;4.80;;;2.50;;
7340;SDS011;6870;50.944;6.932;2024-03-23T10:33:52;7.23;;;2.43;;
7340;SDS011;6870;50.944;6.932;2024-03-23T10:36:20;5.00;;;2.20;;
7340;SDS011;6870;50.944;6.932;2024-03-23T10:38:49;3.10;;;1.80;;
7340;SDS011;6870;50.944;6.932;2024-03-23T10:41:19;6.53;;;2.23;;
7340;SDS011;6870;50.944;6.932;2024-03-23T10:43:45;4.60;;;2.07;;
7340;SDS011;6870;50.944;6.932;2024-03-23T10:46:14;8.00;;;2.17;;
7340;SDS011;6870;50.944;6.932;2024-03-23T10:48:41;2.63;;;1.43;;
7340;SDS011;6870;50.944;6.932;2024-03-23T10:51:08;5.23;;;2.07;;
7340;SDS011;6870;50.944;6.932;2024-03-23T10:53:35;4.67;;;1.63;;
7340;SDS011;6870;50.944;6.932;2024-03-23T10:56:04;4.57;;;2.00;;
7340;SDS011;6870;50.944;6.932;2024-03-23T10:58:32;6.67;;;1.60;;
7340;SDS011;6870;50.944;6.932;2024-03-23T11:01:04;4.80;;;2.03;;
7340;SDS011;6870;50.944;6.932;2024-03-23T11:03:31;11.53;;;2.60;;
7340;SDS011;6870;50.944;6.932;2024-03-23T11:06:02;10.40;;;3.10;;
7340;SDS011;6870;50.944;6.932;2024-03-23T11:08:30;8.17;;;2.23;;
7340;SDS011;6870;50.944;6.932;2024-03-23T11:11:11;10.47;;;1.93;;
7340;SDS011;6870;50.944;6.932;2024-03-23T11:13:41;11.23;;;3.20;;
7340;SDS011;6870;50.944;6.932;2024-03-23T11:16:14;10.67;;;2.67;;
7340;SDS011;6870;50.944;6.932;2024-03-23T11:18:47;17.43;;;2.83;;
7340;SDS011;6870;50.944;6.932;2024-03-23T11:24:18;11.33;;;3.80;;
7340;SDS011;6870;50.944;6.932;2024-03-23T11:26:46;14.10;;;4.53;;
7340;SDS011;6870;50.944;6.932;2024-03-23T11:29:14;8.57;;;3.50;;
7340;SDS011;6870;50.944;6.932;2024-03-23T11:31:46;7.87;;;3.43;;
7340;SDS011;6870;50.944;6.932;2024-03-23T11:34:13;5.47;;;3.03;;
7340;SDS011;6870;50.944;6.932;2024-03-23T11:36:42;10.47;;;4.47;;
7340;SDS011;6870;50.944;6.932;2024-03-23T11:39:12;8.23;;;4.20;;
7340;SDS011;6870;50.944;6.932;2024-03-23T11:41:47;9.07;;;4.20;;
7340;SDS011;6870;50.944;6.932;2024-03-23T11:44:17;10.63;;;4.13;;
7340;SDS011;6870;50.944;6.932;2024-03-23T11:46:45;6.77;;;3.70;;
7340;SDS011;6870;50.944;6.932;2024-03-23T11:49:21;8.00;;;3.77;;
7340;SDS011;6870;50.944;6.932;2024-03-23T11:51:49;10.20;;;4.27;;
7340;SDS011;6870;50.944;6.932;2024-03-23T11:54:19;11.30;;;4.20;;
7340;SDS011;6870;50.944;6.932;2024-03-23T11:56:54;6.93;;;3.80;;
7340;SDS011;6870;50.944;6.932;2024-03-23T11:59:33;5.20;;;3.97;;
7340;SDS011;6870;50.944;6.932;2024-03-23T12:02:05;7.43;;;4.47;;
7340;SDS011;6870;50.944;6.932;2024-03-23T12:04:32;6.30;;;4.10;;
7340;SDS011;6870;50.944;6.932;2024-03-23T12:07:14;5.53;;;3.10;;
7340;SDS011;6870;50.944;6.932;2024-03-23T12:09:43;11.00;;;4.40;;
7340;SDS011;6870;50.944;6.932;2024-03-23T12:12:13;6.77;;;4.53;;
7340;SDS011;6870;50.944;6.932;2024-03-23T12:14:43;5.30;;;3.63;;
7340;SDS011;6870;50.944;6.932;2024-03-23T12:17:10;7.10;;;4.03;;
7340;SDS011;6870;50.944;6.932;2024-03-23T12:19:38;8.10;;;3.70;;
7340;SDS011;6870;50.944;6.932;2024-03-23T12:22:06;8.50;;;3.83;;
7340;SDS011;6870;50.944;6.932;2024-03-23T12:24:33;6.20;;;3.23;;
7340;SDS011;6870;50.944;6.932;2024-03-23T12:27:01;18.03;;;3.83;;
7340;SDS011;6870;50.944;6.932;2024-03-23T12:29:29;6.17;;;3.07;;
7340;SDS011;6870;50.944;6.932;2024-03-23T12:32:00;6.30;;;4.00;;
7340;SDS011;6870;50.944;6.932;2024-03-23T12:34:27;8.20;;;4.27;;
7340;SDS011;6870;50.944;6.932;2024-03-23T12:36:55;6.40;;;3.90;;
7340;SDS011;6870;50.944;6.932;2024-03-23T12:39:22;4.87;;;3.27;;
7340;SDS011;6870;50.944;6.932;2024-03-23T12:41:49;6.60;;;4.13;;
7340;SDS011;6870;50.944;6.932;2024-03-23T12:44:17;10.17;;;4.80;;
7340;SDS011;6870;50.944;6.932;2024-03-23T12:46:44;8.00;;;3.50;;
7340;SDS011;6870;50.944;6.932;2024-03-23T12:49:12;5.73;;;3.33;;
7340;SDS011;6870;50.944;6.932;2024-03-23T12:51:39;8.20;;;4.37;;
7340;SDS011;6870;50.944;6.932;2024-03-23T12:54:19;7.63;;;3.77;;
7340;SDS011;6870;50.944;6.932;2024-03-23T12:56:47;8.20;;;3.70;;
7340;SDS011;6870;50.944;6.932;2024-03-23T12:59:13;6.80;;;4.07;;
7340;SDS011;6870;50.944;6.932;2024-03-23T13:01:41;4.50;;;3.27;;
7340;SDS011;6870;50.944;6.932;2024-03-23T13:04:08;12.03;;;3.70;;
7340;SDS011;6870;50.944;6.932;2024-03-23T13:06:37;9.50;;;3.80;;
7340;SDS011;6870;50.944;6.932;2024-03-23T13:09:03;8.20;;;4.30;;
7340;SDS011;6870;50.944;6.932;2024-03-23T13:11:31;9.23;;;4.93;;
7340;SDS011;6870;50.944;6.932;2024-03-23T13:13:57;8.47;;;5.00;;
7340;SDS011;6870;50.944;6.932;2024-03-23T13:16:25;14.27;;;4.53;;
7340;SDS011;6870;50.944;6.932;2024-03-23T13:18:51;7.10;;;4.10;;
7340;SDS011;6870;50.944;6.932;2024-03-23T13:21:18;11.83;;;5.20;;
7340;SDS011;6870;50.944;6.932;2024-03-23T13:23:47;11.13;;;5.17;;
7340;SDS011;6870;50.944;6.932;2024-03-23T13:26:16;14.73;;;6.13;;
7340;SDS011;6870;50.944;6.932;2024-03-23T13:28:42;11.47;;;6.40;;
7340;SDS011;6870;50.944;6.932;2024-03-23T13:31:10;10.50;;;6.93;;
7340;SDS011;6870;50.944;6.932;2024-03-23T13:33:36;14.07;;;7.30;;
7340;SDS011;6870;50.944;6.932;2024-03-23T13:36:03;14.87;;;8.00;;
7340;SDS011;6870;50.944;6.932;2024-03-23T13:38:30;19.27;;;9.70;;
7340;SDS011;6870;50.944;6.932;2024-03-23T13:40:59;18.80;;;9.00;;
7340;SDS011;6870;50.944;6.932;2024-03-23T13:43:27;18.27;;;7.83;;
7340;SDS011;6870;50.944;6.932;2024-03-23T13:45:55;15.83;;;7.43;;
7340;SDS011;6870;50.944;6.932;2024-03-23T13:48:24;18.50;;;8.60;;
7340;SDS011;6870;50.944;6.932;2024-03-23T13:50:58;14.40;;;7.93;;
7340;SDS011;6870;50.944;6.932;2024-03-23T13:53:25;17.63;;;8.70;;
7340;SDS011;6870;50.944;6.932;2024-03-23T13:55:52;19.70;;;9.90;;
7340;SDS011;6870;50.944;6.932;2024-03-23T13:58:20;15.67;;;8.70;;
7340;SDS011;6870;50.944;6.932;2024-03-23T14:00:49;12.20;;;8.03;;
7340;SDS011;6870;50.944;6.932;2024-03-23T14:03:15;19.97;;;7.60;;
7340;SDS011;6870;50.944;6.932;2024-03-23T14:05:43;14.17;;;7.63;;
7340;SDS011;6870;50.944;6.932;2024-03-23T14:08:12;25.80;;;7.80;;
7340;SDS011;6870;50.944;6.932;2024-03-23T14:10:40;13.30;;;7.97;;
7340;SDS011;6870;50.944;6.932;2024-03-23T14:13:07;19.33;;;8.73;;
7340;SDS011;6870;50.944;6.932;2024-03-23T14:15:35;15.47;;;8.70;;
7340;SDS011;6870;50.944;6.932;2024-03-23T14:18:02;16.53;;;7.83;;
7340;SDS011;6870;50.944;6.932;2024-03-23T14:20:30;14.27;;;7.67;;
7340;SDS011;6870;50.944;6.932;2024-03-23T14:22:56;13.30;;;7.63;;
7340;SDS011;6870;50.944;6.932;2024-03-23T14:25:23;13.50;;;7.37;;
7340;SDS011;6870;50.944;6.932;2024-03-23T14:27:52;17.70;;;7.90;;
7340;SDS011;6870;50.944;6.932;2024-03-23T14:30:19;15.83;;;8.50;;
7340;SDS011;6870;50.944;6.932;2024-03-23T14:32:47;13.60;;;8.20;;
7340;SDS011;6870;50.944;6.932;2024-03-23T14:35:15;13.40;;;7.40;;
7340;SDS011;6870;50.944;6.932;2024-03-23T14:37:41;13.60;;;6.97;;
7340;SDS011;6870;50.944;6.932;2024-03-23T14:40:08;14.77;;;6.63;;
7340;SDS011;6870;50.944;6.932;2024-03-23T14:42:38;9.30;;;5.80;;
7340;SDS011;6870;50.944;6.932;2024-03-23T14:45:06;15.50;;;6.83;;
7340;SDS011;6870;50.944;6.932;2024-03-23T14:47:34;10.53;;;6.80;;
7340;SDS011;6870;50.944;6.932;2024-03-23T14:50:02;10.93;;;5.93;;
7340;SDS011;6870;50.944;6.932;2024-03-23T14:52:29;11.03;;;6.93;;
7340;SDS011;6870;50.944;6.932;2024-03-23T14:54:56;13.00;;;7.33;;
7340;SDS011;6870;50.944;6.932;2024-03-23T14:57:22;9.93;;;6.10;;
7340;SDS011;6870;50.944;6.932;2024-03-23T14:59:49;12.83;;;6.47;;
7340;SDS011;6870;50.944;6.932;2024-03-23T15:02:17;8.73;;;4.90;;
7340;SDS011;6870;50.944;6.932;2024-03-23T15:04:44;12.53;;;7.97;;
7340;SDS011;6870;50.944;6.932;2024-03-23T15:07:12;17.47;;;7.57;;
7340;SDS011;6870;50.944;6.932;2024-03-23T15:09:39;12.47;;;6.33;;
7340;SDS011;6870;50.944;6.932;2024-03-23T15:12:05;7.73;;;5.97;;
7340;SDS011;6870;50.944;6.932;2024-03-23T15:14:33;10.57;;;6.27;;
7340;SDS011;6870;50.944;6.932;2024-03-23T15:17:00;12.03;;;6.70;;
7340;SDS011;6870;50.944;6.932;2024-03-23T15:19:30;12.20;;;7.17;;
7340;SDS011;6870;50.944;6.932;2024-03-23T15:21:56;9.20;;;6.40;;
7340;SDS011;6870;50.944;6.932;2024-03-23T15:24:24;10.07;;;6.07;;
7340;SDS011;6870;50.944;6.932;2024-03-23T15:26:51;11.27;;;6.47;;
7340;SDS011;6870;50.944;6.932;2024-03-23T15:29:18;9.50;;;6.77;;
7340;SDS011;6870;50.944;6.932;2024-03-23T15:31:47;10.73;;;7.47;;
7340;SDS011;6870;50.944;6.932;2024-03-23T15:34:18;12.43;;;6.83;;
7340;SDS011;6870;50.944;6.932;2024-03-23T15:36:44;11.20;;;6.87;;
7340;SDS011;6870;50.944;6.932;2024-03-23T15:39:11;10.70;;;6.30;;
7340;SDS011;6870;50.944;6.932;2024-03-23T15:41:40;15.13;;;6.37;;
7340;SDS011;6870;50.944;6.932;2024-03-23T15:44:07;13.60;;;6.93;;
7340;SDS011;6870;50.944;6.932;2024-03-23T15:46:33;17.57;;;6.73;;
7340;SDS011;6870;50.944;6.932;2024-03-23T15:49:01;13.23;;;6.70;;
7340;SDS011;6870;50.944;6.932;2024-03-23T15:51:27;21.53;;;6.80;;
7340;SDS011;6870;50.944;6.932;2024-03-23T15:53:58;19.20;;;6.50;;
7340;SDS011;6870;50.944;6.932;2024-03-23T15:56:24;11.93;;;6.40;;
7340;SDS011;6870;50.944;6.932;2024-03-23T15:58:53;12.20;;;6.17;;
7340;SDS011;6870;50.944;6.932;2024-03-23T16:01:19;12.67;;;6.07;;
7340;SDS011;6870;50.944;6.932;2024-03-23T16:03:47;11.43;;;5.50;;
7340;SDS011;6870;50.944;6.932;2024-03-23T16:06:13;10.20;;;6.20;;
7340;SDS011;6870;50.944;6.932;2024-03-23T16:08:40;12.63;;;7.20;;
7340;SDS011;6870;50.944;6.932;2024-03-23T16:11:07;9.33;;;4.80;;